Time;durP1;ratioP1;P1;durP2;ratioP2;P2;SDS_P1;SDS_P2;PMS_P1;PMS_P2;Temp;Humidity;BMP_temperature;BMP_pressure;BME280_temperature;BME280_humidity;BME280_pressure;Samples;Min_cycle;Max_cycle;Signal;HPM_P1;HPM_P2
2022/07/27 00:13:15;;;;;;;6.05;2.60;;;13.10;99.90;;;;;;5066698;23;20057;-65
2022/07/27 00:23:27;;;;;;;10.40;2.60;;;13.00;99.90;;;;;;6027339;23;20010;-65
2022/07/27 00:25:53;;;;;;;4.93;2.53;;;13.00;99.90;;;;;;4931363;29;20045;-66
2022/07/27 00:33:29;;;;;;;7.25;2.40;;;13.00;99.90;;;;;;5293340;23;20109;-65
2022/07/27 00:35:55;;;;;;;9.95;2.40;;;12.90;99.90;;;;;;4955946;28;20038;-65
2022/07/27 00:56:28;;;;;;;6.13;2.70;;;12.90;99.90;;;;;;5943805;23;20220;-67
2022/07/27 00:58:54;;;;;;;7.13;2.50;;;12.90;99.90;;;;;;4961861;28;20121;-65
2022/07/27 01:01:20;;;;;;;6.20;2.78;;;12.90;99.90;;;;;;4947159;28;20133;-66
2022/07/27 01:03:46;;;;;;;7.30;2.53;;;12.90;99.90;;;;;;4963153;28;20042;-66
2022/07/27 01:13:58;;;;;;;4.22;2.60;;;12.90;99.90;;;;;;5832210;23;20054;-66
2022/07/27 01:16:24;;;;;;;7.05;2.92;;;12.90;99.90;;;;;;4932748;29;20399;-65
2022/07/27 01:18:50;;;;;;;5.28;2.60;;;12.80;99.90;;;;;;4959947;23;20039;-65
2022/07/27 01:21:15;;;;;;;8.13;2.65;;;12.80;99.90;;;;;;4953236;29;20043;-64
2022/07/27 01:23:41;;;;;;;8.32;2.83;;;12.90;99.90;;;;;;4955608;28;20183;-65
2022/07/27 01:26:06;;;;;;;8.18;2.90;;;12.90;99.90;;;;;;4948069;29;20558;-65
2022/07/27 01:28:32;;;;;;;6.50;2.80;;;12.90;99.90;;;;;;4953429;28;20118;-65
2022/07/27 01:30:58;;;;;;;7.88;3.50;;;12.90;99.90;;;;;;4981557;23;20042;-64
2022/07/27 01:33:26;;;;;;;6.05;2.90;;;12.90;99.90;;;;;;4959129;28;20463;-64
2022/07/27 01:35:54;;;;;;;5.53;2.80;;;12.90;99.90;;;;;;4952505;28;20043;-64
2022/07/27 01:38:20;;;;;;;7.35;2.80;;;12.90;99.90;;;;;;4953551;28;20122;-64
2022/07/27 01:40:47;;;;;;;6.47;2.80;;;12.90;99.90;;;;;;4961633;28;20086;-64
2022/07/27 01:43:12;;;;;;;6.88;2.85;;;12.90;99.90;;;;;;4964254;28;20043;-64
2022/07/27 01:45:39;;;;;;;6.07;2.80;;;12.90;99.90;;;;;;4972908;28;20041;-64
2022/07/27 01:48:05;;;;;;;7.03;2.70;;;13.00;99.90;;;;;;4965467;28;20036;-65
2022/07/27 01:50:30;;;;;;;10.35;3.25;;;13.00;99.90;;;;;;4962832;28;20389;-65
2022/07/27 01:52:56;;;;;;;5.32;2.60;;;13.00;99.90;;;;;;4958818;28;20394;-65
2022/07/27 01:55:22;;;;;;;6.07;2.80;;;13.00;99.90;;;;;;4972627;28;20391;-64
2022/07/27 01:57:47;;;;;;;5.40;2.80;;;13.10;99.90;;;;;;4968992;28;20129;-64
2022/07/27 02:00:14;;;;;;;5.75;2.60;;;13.10;99.90;;;;;;4935200;28;20404;-64
2022/07/27 02:02:40;;;;;;;5.35;3.00;;;13.10;99.90;;;;;;4965258;28;20427;-64
2022/07/27 02:05:06;;;;;;;7.80;2.90;;;13.10;99.90;;;;;;4953279;28;20551;-64
2022/07/27 02:07:32;;;;;;;4.13;2.72;;;13.10;99.90;;;;;;4963221;28;20037;-64
2022/07/27 02:09:58;;;;;;;7.38;3.08;;;13.20;99.90;;;;;;4957867;28;20035;-64
2022/07/27 02:12:35;;;;;;;5.70;2.88;;;13.20;99.90;;;;;;4952733;29;20415;-64
2022/07/27 02:15:13;;;;;;;9.10;3.50;;;13.20;99.90;;;;;;4952124;28;20080;-65
2022/07/27 02:17:39;;;;;;;6.38;2.90;;;13.20;99.90;;;;;;4954697;28;20078;-64
2022/07/27 02:20:07;;;;;;;5.72;2.55;;;13.30;99.90;;;;;;4952707;29;20154;-65
2022/07/27 02:22:33;;;;;;;7.10;2.88;;;13.20;99.90;;;;;;4952900;28;20039;-64
2022/07/27 02:24:59;;;;;;;8.30;2.95;;;13.20;99.90;;;;;;4955102;28;20097;-64
2022/07/27 02:27:25;;;;;;;11.55;3.22;;;13.20;99.90;;;;;;4952452;29;20514;-64
2022/07/27 02:29:52;;;;;;;7.07;3.00;;;13.20;99.90;;;;;;4952331;29;20035;-64
2022/07/27 02:32:18;;;;;;;7.07;3.08;;;13.20;99.90;;;;;;4950847;28;20753;-64
2022/07/27 02:34:44;;;;;;;5.95;2.80;;;13.10;99.90;;;;;;4957428;28;20233;-64
2022/07/27 02:37:09;;;;;;;7.35;3.00;;;13.10;99.90;;;;;;4952550;29;20163;-65
2022/07/27 02:39:35;;;;;;;7.97;2.83;;;13.00;99.90;;;;;;4953581;28;20075;-64
2022/07/27 02:42:02;;;;;;;4.75;2.83;;;13.00;99.90;;;;;;4956565;28;20035;-64
2022/07/27 02:44:28;;;;;;;7.72;2.97;;;13.00;99.90;;;;;;4970612;28;20122;-64
2022/07/27 02:46:54;;;;;;;7.20;2.75;;;13.00;99.90;;;;;;4957650;28;20110;-64
2022/07/27 02:49:19;;;;;;;6.72;2.70;;;13.00;99.90;;;;;;4955311;28;20563;-64
2022/07/27 02:51:51;;;;;;;6.35;2.88;;;12.90;99.90;;;;;;4954827;28;20122;-64
2022/07/27 02:54:23;;;;;;;6.82;2.92;;;12.90;99.90;;;;;;4950814;28;20522;-64
2022/07/27 02:56:54;;;;;;;4.10;2.70;;;12.80;99.90;;;;;;4952818;28;20039;-64
2022/07/27 02:59:21;;;;;;;5.05;2.72;;;12.80;99.90;;;;;;4952130;28;20051;-64
2022/07/27 03:01:47;;;;;;;5.57;2.80;;;12.80;99.90;;;;;;4961400;28;20038;-64
2022/07/27 03:04:13;;;;;;;7.93;2.67;;;12.70;99.90;;;;;;4963234;28;20070;-64
2022/07/27 03:06:40;;;;;;;8.30;2.70;;;12.60;99.90;;;;;;4959092;28;20484;-64
2022/07/27 03:09:06;;;;;;;4.30;2.40;;;12.60;99.90;;;;;;4957724;28;20450;-64
2022/07/27 03:11:32;;;;;;;6.38;2.63;;;12.60;99.90;;;;;;4965434;28;20063;-64
2022/07/27 03:13:58;;;;;;;7.32;3.00;;;12.50;99.90;;;;;;4937269;29;20036;-64
2022/07/27 03:16:23;;;;;;;8.00;2.95;;;12.50;99.90;;;;;;4968700;28;20043;-64
2022/07/27 03:18:49;;;;;;;8.30;2.60;;;12.50;99.90;;;;;;4971639;28;20101;-64
2022/07/27 03:21:14;;;;;;;6.03;2.97;;;12.40;99.90;;;;;;4951257;28;20039;-64
2022/07/27 03:23:40;;;;;;;7.15;2.90;;;12.40;99.90;;;;;;4949686;28;20040;-64
2022/07/27 03:26:06;;;;;;;3.97;2.63;;;12.30;99.90;;;;;;4953008;28;20046;-64
2022/07/27 03:28:31;;;;;;;5.53;2.70;;;12.30;99.90;;;;;;4956528;28;20042;-64
2022/07/27 03:30:57;;;;;;;7.80;2.70;;;12.30;99.90;;;;;;4953461;28;20454;-64
2022/07/27 03:33:23;;;;;;;4.72;2.35;;;12.20;99.90;;;;;;4951509;28;20039;-64
2022/07/27 03:35:49;;;;;;;5.95;2.83;;;12.20;99.90;;;;;;4952304;29;20133;-64
2022/07/27 03:38:15;;;;;;;8.50;2.78;;;12.20;99.90;;;;;;4954101;28;20031;-64
2022/07/27 03:40:41;;;;;;;5.43;2.67;;;12.20;99.90;;;;;;4952388;28;20403;-65
2022/07/27 03:43:07;;;;;;;5.55;2.47;;;12.10;99.90;;;;;;4954232;28;20074;-64
2022/07/27 03:45:32;;;;;;;4.65;2.35;;;11.90;99.90;;;;;;4957222;28;20113;-64
2022/07/27 03:47:59;;;;;;;6.25;2.50;;;11.70;99.90;;;;;;4957917;28;20054;-64
2022/07/27 03:50:24;;;;;;;5.38;2.20;;;11.40;99.90;;;;;;4970553;28;20050;-64
2022/07/27 03:52:50;;;;;;;8.70;2.42;;;11.20;99.90;;;;;;4970790;28;20406;-65
2022/07/27 03:55:17;;;;;;;4.70;2.47;;;11.00;99.90;;;;;;4959342;28;20039;-64
2022/07/27 03:57:43;;;;;;;7.05;2.45;;;10.90;99.90;;;;;;4954925;28;20041;-64
2022/07/27 04:00:12;;;;;;;7.18;2.67;;;10.90;99.90;;;;;;4952540;28;20118;-64
2022/07/27 04:02:39;;;;;;;4.13;2.40;;;10.80;99.90;;;;;;4960288;28;20047;-63
2022/07/27 04:05:06;;;;;;;5.45;2.63;;;10.80;99.90;;;;;;4954749;28;20042;-64
2022/07/27 04:07:32;;;;;;;5.13;2.67;;;10.80;99.90;;;;;;4954877;29;20118;-65
2022/07/27 04:09:58;;;;;;;4.57;2.50;;;10.90;99.90;;;;;;4954698;28;20479;-63
2022/07/27 04:12:23;;;;;;;6.25;2.50;;;10.90;99.90;;;;;;4960858;28;20043;-64
2022/07/27 04:14:49;;;;;;;5.57;2.80;;;10.90;99.90;;;;;;4956508;28;20101;-63
2022/07/27 04:17:15;;;;;;;5.80;2.50;;;11.00;99.90;;;;;;4961129;28;20050;-64
2022/07/27 04:19:41;;;;;;;5.25;2.95;;;11.10;99.90;;;;;;4952715;28;20035;-64
2022/07/27 04:22:06;;;;;;;6.15;3.08;;;11.20;99.90;;;;;;4959417;28;20043;-64
2022/07/27 04:24:32;;;;;;;6.05;2.30;;;11.30;99.90;;;;;;4963281;28;20125;-64
2022/07/27 04:26:58;;;;;;;6.60;2.40;;;11.30;99.90;;;;;;4954452;28;20429;-64
2022/07/27 04:29:23;;;;;;;3.42;1.63;;;11.30;99.90;;;;;;4955560;28;20069;-64
2022/07/27 04:31:49;;;;;;;7.63;2.03;;;11.20;99.90;;;;;;4954052;28;20043;-64
2022/07/27 04:34:15;;;;;;;4.93;2.88;;;11.20;99.90;;;;;;4957563;28;20046;-64
2022/07/27 04:36:40;;;;;;;6.75;2.97;;;11.10;99.90;;;;;;4959628;28;20699;-64
2022/07/27 04:39:07;;;;;;;6.97;2.53;;;11.10;99.90;;;;;;4960519;28;20043;-64
2022/07/27 04:41:32;;;;;;;6.93;2.72;;;11.00;99.90;;;;;;4973162;28;20513;-64
2022/07/27 04:43:58;;;;;;;7.50;2.65;;;10.90;99.90;;;;;;4967844;28;20034;-64
2022/07/27 04:46:24;;;;;;;5.10;2.95;;;10.90;99.90;;;;;;4970935;28;20124;-64
2022/07/27 04:48:50;;;;;;;6.35;2.80;;;10.90;99.90;;;;;;4960445;28;20230;-64
2022/07/27 04:51:17;;;;;;;4.03;2.38;;;10.90;99.90;;;;;;4952030;28;20704;-65
2022/07/27 04:53:43;;;;;;;4.90;2.40;;;10.80;99.90;;;;;;4957756;28;20039;-64
2022/07/27 04:56:09;;;;;;;5.00;2.72;;;10.90;99.90;;;;;;4957943;28;20073;-64
2022/07/27 04:58:36;;;;;;;5.20;2.67;;;11.00;99.90;;;;;;4954169;29;20050;-65
2022/07/27 05:01:02;;;;;;;8.13;2.80;;;11.10;99.90;;;;;;4951477;28;20031;-65
2022/07/27 05:03:28;;;;;;;9.02;2.97;;;11.30;99.90;;;;;;4957552;28;20211;-65
2022/07/27 05:05:53;;;;;;;4.88;2.55;;;11.30;99.90;;;;;;4955883;28;20042;-64
2022/07/27 05:08:19;;;;;;;8.00;3.10;;;11.30;99.90;;;;;;4958415;28;20035;-64
2022/07/27 05:10:45;;;;;;;6.50;2.70;;;11.40;99.90;;;;;;4952042;28;20035;-64
2022/07/27 05:13:11;;;;;;;10.75;3.35;;;11.50;99.90;;;;;;4943860;28;20521;-64
2022/07/27 05:15:37;;;;;;;6.45;3.28;;;11.60;99.90;;;;;;4952969;28;20114;-64
2022/07/27 05:18:03;;;;;;;5.75;3.17;;;11.70;99.90;;;;;;4953439;28;20149;-64
2022/07/27 05:20:30;;;;;;;6.40;3.50;;;11.80;99.90;;;;;;4969074;28;20038;-64
2022/07/27 05:22:55;;;;;;;7.00;3.22;;;12.00;99.90;;;;;;4966153;28;20457;-64
2022/07/27 05:25:24;;;;;;;8.05;4.22;;;12.10;99.90;;;;;;4960187;28;20546;-64
2022/07/27 05:27:51;;;;;;;9.15;3.90;;;12.30;99.90;;;;;;4954801;28;20039;-64
2022/07/27 05:30:17;;;;;;;7.15;3.50;;;12.40;99.90;;;;;;4948350;28;20046;-64
2022/07/27 05:32:42;;;;;;;10.60;3.97;;;12.60;99.90;;;;;;4953173;28;20035;-64
2022/07/27 05:35:09;;;;;;;10.32;3.30;;;12.70;99.90;;;;;;4968552;28;20513;-64
2022/07/27 05:37:34;;;;;;;7.03;3.40;;;12.80;99.90;;;;;;4966540;28;20039;-65
2022/07/27 05:40:00;;;;;;;8.63;3.88;;;13.00;99.90;;;;;;4956770;28;20521;-64
2022/07/27 05:42:26;;;;;;;8.02;3.88;;;13.10;99.90;;;;;;4950615;28;20039;-64
2022/07/27 05:44:55;;;;;;;6.05;3.67;;;13.20;99.90;;;;;;4959485;28;20525;-64
2022/07/27 05:47:20;;;;;;;6.55;3.70;;;13.30;99.90;;;;;;4957011;28;20063;-64
2022/07/27 05:49:47;;;;;;;7.78;3.97;;;13.40;99.90;;;;;;4965067;28;20490;-64
2022/07/27 05:52:13;;;;;;;9.02;3.40;;;13.50;99.90;;;;;;4972003;28;20078;-64
2022/07/27 05:54:38;;;;;;;7.50;3.53;;;13.60;99.90;;;;;;4958766;28;20137;-64
2022/07/27 05:57:04;;;;;;;8.02;3.60;;;13.60;99.90;;;;;;4956999;28;20039;-64
2022/07/27 05:59:31;;;;;;;9.77;4.05;;;13.80;99.90;;;;;;4934877;28;20114;-65
2022/07/27 06:01:57;;;;;;;8.90;3.70;;;13.80;99.90;;;;;;4957886;28;20464;-65
2022/07/27 06:04:24;;;;;;;9.55;3.70;;;13.90;99.90;;;;;;4961874;28;20047;-66
2022/07/27 06:09:34;;;;;;;8.98;3.60;;;14.00;99.90;;;;;;4956241;28;20043;-64
2022/07/27 06:12:00;;;;;;;7.95;3.70;;;14.10;99.90;;;;;;4952422;28;20039;-66
2022/07/27 06:14:26;;;;;;;8.40;3.92;;;14.20;99.90;;;;;;4951336;28;20066;-65
2022/07/27 06:16:51;;;;;;;9.73;3.78;;;14.20;99.90;;;;;;4949919;28;20031;-63
2022/07/27 06:19:17;;;;;;;11.75;5.00;;;14.30;99.90;;;;;;4952036;28;20534;-63
2022/07/27 06:21:43;;;;;;;7.47;3.90;;;14.30;99.90;;;;;;4951972;28;20040;-65
2022/07/27 06:24:09;;;;;;;9.57;3.20;;;14.50;99.90;;;;;;4957922;28;20045;-63
2022/07/27 06:26:34;;;;;;;9.52;4.25;;;14.60;99.90;;;;;;4955398;28;20043;-66
2022/07/27 06:29:00;;;;;;;10.25;3.30;;;14.60;99.90;;;;;;4967118;28;20041;-66
2022/07/27 06:31:27;;;;;;;6.93;2.90;;;14.70;99.90;;;;;;4964921;28;20035;-66
2022/07/27 06:33:53;;;;;;;11.00;3.00;;;14.70;99.90;;;;;;4939083;29;20086;-66
2022/07/27 06:36:19;;;;;;;8.50;2.78;;;14.70;99.90;;;;;;4952161;28;20578;-66
2022/07/27 06:38:46;;;;;;;8.15;2.95;;;14.70;99.90;;;;;;4952324;29;20046;-66
2022/07/27 06:41:12;;;;;;;6.50;3.15;;;14.70;99.90;;;;;;4951326;28;20035;-66
2022/07/27 06:43:37;;;;;;;7.20;2.75;;;14.70;99.90;;;;;;4953278;28;20046;-66
2022/07/27 06:46:05;;;;;;;7.97;2.95;;;14.70;99.90;;;;;;4958753;28;20093;-66
2022/07/27 06:48:32;;;;;;;6.53;2.83;;;14.80;99.90;;;;;;4964823;28;20043;-65
2022/07/27 06:50:58;;;;;;;17.13;3.67;;;14.80;99.90;;;;;;4951378;28;20090;-64
2022/07/27 06:53:25;;;;;;;7.43;3.08;;;14.90;99.90;;;;;;4952074;28;20504;-65
2022/07/27 06:55:52;;;;;;;5.95;2.53;;;15.10;99.90;;;;;;4956502;28;20035;-65
2022/07/27 06:58:18;;;;;;;7.22;3.13;;;15.20;99.90;;;;;;4956861;28;20446;-65
2022/07/27 07:00:44;;;;;;;8.85;2.80;;;15.20;99.90;;;;;;4957889;28;20046;-66
2022/07/27 07:03:10;;;;;;;9.95;3.20;;;15.20;99.90;;;;;;4971137;28;20412;-65
2022/07/27 07:05:45;;;;;;;8.73;3.03;;;15.40;99.90;;;;;;4963562;28;20047;-66
2022/07/27 07:08:12;;;;;;;8.68;2.90;;;15.50;99.90;;;;;;4955095;28;20054;-65
2022/07/27 07:10:43;;;;;;;6.43;2.70;;;15.60;99.90;;;;;;4951903;29;20058;-65
2022/07/27 07:13:09;;;;;;;6.28;2.85;;;15.70;99.90;;;;;;4951473;29;20062;-66
2022/07/27 07:15:36;;;;;;;11.20;3.17;;;15.60;99.90;;;;;;4952844;28;20040;-65
2022/07/27 07:18:03;;;;;;;7.35;2.92;;;15.60;99.90;;;;;;4963029;28;20031;-65
2022/07/27 07:20:30;;;;;;;12.75;3.25;;;15.70;99.90;;;;;;4961911;28;20459;-65
2022/07/27 07:22:57;;;;;;;5.88;2.40;;;15.70;99.90;;;;;;4957727;28;20042;-66
2022/07/27 07:25:23;;;;;;;6.82;2.00;;;15.80;99.90;;;;;;4966235;28;20043;-65
2022/07/27 07:27:49;;;;;;;5.65;2.30;;;15.90;99.90;;;;;;4945943;28;20114;-65
2022/07/27 07:30:14;;;;;;;8.00;2.30;;;16.00;99.90;;;;;;4930393;28;20459;-65
2022/07/27 07:32:40;;;;;;;7.03;2.30;;;16.10;99.90;;;;;;4956785;28;20088;-66
2022/07/27 07:35:06;;;;;;;6.07;2.25;;;16.20;99.90;;;;;;4956949;28;20045;-65
2022/07/27 07:37:32;;;;;;;6.57;2.63;;;16.30;99.90;;;;;;4966820;28;20098;-65
2022/07/27 07:39:58;;;;;;;8.48;2.47;;;16.30;99.90;;;;;;4955538;28;20035;-65
2022/07/27 07:42:25;;;;;;;5.65;2.50;;;16.40;99.90;;;;;;4938214;28;20670;-65
2022/07/27 07:44:50;;;;;;;8.90;2.38;;;16.50;99.90;;;;;;4955421;28;20058;-66
2022/07/27 07:47:16;;;;;;;7.18;2.63;;;16.50;99.90;;;;;;4957773;28;20039;-65
2022/07/27 07:49:42;;;;;;;8.88;2.25;;;16.60;99.90;;;;;;4958192;28;20027;-65
2022/07/27 07:52:07;;;;;;;5.50;2.28;;;16.80;99.90;;;;;;4957448;28;20047;-65
2022/07/27 07:54:33;;;;;;;7.90;2.20;;;16.90;99.90;;;;;;4969214;28;20039;-66
2022/07/27 07:56:59;;;;;;;3.47;1.90;;;17.10;99.90;;;;;;4955294;28;20035;-66
2022/07/27 07:59:25;;;;;;;4.22;1.80;;;17.20;99.90;;;;;;4958780;28;20039;-66
2022/07/27 08:01:50;;;;;;;4.78;1.80;;;17.20;99.90;;;;;;4959230;28;20071;-66
2022/07/27 08:04:16;;;;;;;5.15;1.80;;;17.20;99.90;;;;;;4953928;28;20050;-65
2022/07/27 08:06:42;;;;;;;8.30;1.80;;;17.30;99.90;;;;;;4958863;28;20047;-66
2022/07/27 08:09:08;;;;;;;2.42;1.58;;;17.40;99.90;;;;;;4954942;28;20051;-66
2022/07/27 08:11:33;;;;;;;5.18;1.65;;;17.40;99.90;;;;;;4957342;28;20034;-66
2022/07/27 08:13:59;;;;;;;5.75;1.50;;;17.50;99.90;;;;;;4961059;28;20042;-65
2022/07/27 08:16:25;;;;;;;4.28;1.45;;;17.50;99.90;;;;;;4954498;28;20035;-66
2022/07/27 08:18:50;;;;;;;5.03;1.52;;;17.50;99.90;;;;;;4957561;28;20130;-65
2022/07/27 08:21:16;;;;;;;4.13;1.45;;;17.40;99.90;;;;;;4958523;28;20508;-65
2022/07/27 08:23:42;;;;;;;3.75;1.50;;;17.50;99.90;;;;;;4959832;28;20666;-64
2022/07/27 08:26:07;;;;;;;6.57;1.60;;;17.50;99.90;;;;;;4965546;28;20420;-65
2022/07/27 08:28:33;;;;;;;4.47;1.27;;;17.60;99.90;;;;;;4958479;28;20043;-66
2022/07/27 08:30:59;;;;;;;7.40;1.48;;;17.80;99.90;;;;;;4953702;28;20042;-66
2022/07/27 08:33:24;;;;;;;3.35;1.42;;;18.00;99.90;;;;;;4950469;28;20046;-66
2022/07/27 08:35:51;;;;;;;6.13;1.35;;;18.10;99.90;;;;;;4958369;28;20043;-66
2022/07/27 08:38:17;;;;;;;4.80;1.40;;;18.30;99.90;;;;;;4960230;28;20039;-66
2022/07/27 08:40:43;;;;;;;5.35;1.52;;;18.40;99.90;;;;;;4968839;28;20038;-66
2022/07/27 08:43:09;;;;;;;5.15;1.35;;;18.40;99.90;;;;;;4964650;28;20045;-65
2022/07/27 08:45:36;;;;;;;4.72;1.30;;;18.10;99.90;;;;;;4961885;28;20057;-65
2022/07/27 08:48:02;;;;;;;2.97;1.30;;;18.10;99.90;;;;;;4964632;28;20035;-65
2022/07/27 08:50:29;;;;;;;6.38;1.48;;;17.90;99.90;;;;;;4972162;28;20038;-65
2022/07/27 08:53:04;;;;;;;8.98;2.20;;;17.70;99.90;;;;;;4967222;28;20447;-64
2022/07/27 08:55:37;;;;;;;6.55;1.73;;;17.60;99.90;;;;;;4956595;28;20046;-65
2022/07/27 08:58:04;;;;;;;3.20;1.52;;;17.60;99.90;;;;;;4973480;28;20035;-64
2022/07/27 09:00:32;;;;;;;4.97;2.13;;;17.70;99.90;;;;;;4973492;28;20071;-64
2022/07/27 09:02:58;;;;;;;4.55;1.40;;;17.70;99.90;;;;;;4950583;28;20075;-64
2022/07/27 09:05:23;;;;;;;3.63;1.40;;;17.80;99.90;;;;;;4955397;28;20055;-66
2022/07/27 09:07:49;;;;;;;7.80;1.80;;;17.90;99.90;;;;;;4953406;28;20047;-64
2022/07/27 09:10:29;;;;;;;5.65;1.80;;;18.10;99.90;;;;;;4956194;28;20059;-65
2022/07/27 09:12:55;;;;;;;5.68;1.75;;;18.20;99.90;;;;;;4959321;28;20126;-65
2022/07/27 09:15:21;;;;;;;3.63;1.60;;;18.30;99.90;;;;;;4953717;29;20152;-65
2022/07/27 09:17:46;;;;;;;6.32;1.63;;;18.30;99.90;;;;;;4954440;28;20452;-64
2022/07/27 09:20:16;;;;;;;3.80;1.60;;;18.30;99.90;;;;;;4961354;28;20535;-65
2022/07/27 09:22:53;;;;;;;7.05;1.77;;;18.30;99.90;;;;;;4965416;28;20574;-64
2022/07/27 09:25:20;;;;;;;7.93;1.60;;;18.40;99.90;;;;;;4973103;28;20125;-64
2022/07/27 09:27:48;;;;;;;4.63;1.70;;;18.40;99.90;;;;;;4966235;28;20038;-64
2022/07/27 09:30:17;;;;;;;6.05;2.17;;;18.50;99.90;;;;;;4953021;28;20039;-66
2022/07/27 09:33:00;;;;;;;4.50;1.58;;;18.60;99.90;;;;;;4952990;29;20043;-67
2022/07/27 09:35:28;;;;;;;3.60;1.55;;;18.80;99.60;;;;;;4952631;28;20496;-66
2022/07/27 09:37:56;;;;;;;3.30;1.67;;;19.00;99.90;;;;;;4952791;28;20488;-67
2022/07/27 09:40:23;;;;;;;5.40;1.90;;;19.20;99.90;;;;;;4953434;28;20035;-66
2022/07/27 09:43:09;;;;;;;4.78;1.70;;;19.30;99.90;;;;;;4952962;29;20400;-66
2022/07/27 09:45:37;;;;;;;6.40;2.08;;;19.30;96.90;;;;;;4957196;28;20411;-66
2022/07/27 09:48:08;;;;;;;6.68;1.77;;;19.20;99.90;;;;;;4939921;29;20035;-66
2022/07/27 09:50:36;;;;;;;4.53;1.63;;;19.00;99.90;;;;;;4952805;28;20086;-65
2022/07/27 09:53:20;;;;;;;5.22;1.70;;;18.40;99.90;;;;;;4950135;28;20039;-66
2022/07/27 09:55:59;;;;;;;4.45;1.65;;;18.10;99.90;;;;;;4958396;28;20043;-66
2022/07/27 09:58:50;;;;;;;5.55;1.70;;;17.90;99.90;;;;;;4952204;28;20036;-66
2022/07/27 10:01:26;;;;;;;5.18;1.70;;;17.80;99.90;;;;;;4953740;28;20422;-66
2022/07/27 10:03:54;;;;;;;6.63;1.85;;;17.80;99.90;;;;;;4954944;28;20042;-66
2022/07/27 10:06:21;;;;;;;4.57;1.70;;;17.80;99.90;;;;;;4954501;28;20054;-66
2022/07/27 10:08:49;;;;;;;6.63;1.70;;;17.80;99.90;;;;;;4953481;28;20118;-66
2022/07/27 10:11:15;;;;;;;6.78;1.80;;;17.80;99.90;;;;;;4953751;28;20086;-66
2022/07/27 10:13:42;;;;;;;4.40;1.60;;;17.80;99.90;;;;;;4952402;29;20110;-66
2022/07/27 10:16:13;;;;;;;4.80;1.85;;;17.90;99.90;;;;;;4949566;28;20046;-66
2022/07/27 10:18:57;;;;;;;6.65;1.70;;;18.10;99.90;;;;;;4958897;28;20121;-66
2022/07/27 10:21:24;;;;;;;7.78;1.80;;;18.20;99.90;;;;;;4952313;29;20039;-67
2022/07/27 10:24:04;;;;;;;5.25;1.92;;;18.20;99.90;;;;;;4952775;29;20043;-66
2022/07/27 10:26:39;;;;;;;5.23;1.80;;;18.30;99.90;;;;;;4951038;28;20507;-66
2022/07/27 10:29:14;;;;;;;7.32;1.80;;;18.50;99.90;;;;;;4951683;28;20039;-66
2022/07/27 10:31:50;;;;;;;5.78;1.83;;;18.60;99.90;;;;;;4952552;29;20050;-66
2022/07/27 10:34:41;;;;;;;5.82;1.83;;;18.90;99.90;;;;;;4949733;28;20047;-66
2022/07/27 10:37:10;;;;;;;6.50;1.90;;;19.20;99.90;;;;;;4950678;28;20649;-65
2022/07/27 10:39:44;;;;;;;6.53;2.00;;;19.50;99.90;;;;;;4960657;28;20031;-65
2022/07/27 10:42:36;;;;;;;5.20;1.98;;;19.60;99.90;;;;;;4952042;28;20046;-65
2022/07/27 10:45:02;;;;;;;5.78;1.80;;;19.70;99.90;;;;;;4950177;28;20500;-65
2022/07/27 10:47:34;;;;;;;4.45;1.80;;;19.90;99.90;;;;;;4934459;29;20055;-66
2022/07/27 10:50:14;;;;;;;4.70;1.60;;;20.00;99.90;;;;;;4953079;28;20062;-66
2022/07/27 10:52:41;;;;;;;4.40;1.60;;;20.30;99.90;;;;;;4951480;28;20054;-65
2022/07/27 10:55:27;;;;;;;6.05;1.85;;;20.40;99.90;;;;;;4952215;28;20038;-65
2022/07/27 10:57:53;;;;;;;4.03;1.85;;;20.30;99.90;;;;;;4950608;28;20046;-66
2022/07/27 11:00:19;;;;;;;3.22;1.42;;;20.20;99.40;;;;;;4958503;28;20101;-65
2022/07/27 11:02:45;;;;;;;4.60;1.80;;;20.10;98.70;;;;;;4967127;28;20046;-65
2022/07/27 11:05:11;;;;;;;5.95;1.60;;;20.00;99.00;;;;;;4954314;28;20122;-65
2022/07/27 11:07:43;;;;;;;4.38;1.60;;;19.90;99.70;;;;;;4971342;28;20050;-65
2022/07/27 11:10:09;;;;;;;5.72;1.40;;;19.90;98.70;;;;;;4956924;28;20376;-66
2022/07/27 11:12:36;;;;;;;3.97;1.55;;;19.80;98.50;;;;;;4938428;28;20043;-65
2022/07/27 11:15:02;;;;;;;4.15;1.50;;;19.80;99.00;;;;;;4955233;28;20040;-66
2022/07/27 11:17:29;;;;;;;2.45;1.40;;;19.90;99.00;;;;;;4959820;28;20057;-65
2022/07/27 11:20:00;;;;;;;3.28;1.38;;;20.00;98.20;;;;;;4954550;28;20143;-65
2022/07/27 11:22:40;;;;;;;4.57;1.35;;;20.20;98.50;;;;;;4954624;28;20050;-66
2022/07/27 11:25:07;;;;;;;3.42;1.83;;;20.40;98.10;;;;;;4953569;28;20042;-65
2022/07/27 11:27:48;;;;;;;4.03;1.50;;;20.40;98.80;;;;;;4955763;28;20069;-65
2022/07/27 11:30:27;;;;;;;3.50;1.50;;;20.60;96.70;;;;;;4955217;28;20047;-65
2022/07/27 11:32:54;;;;;;;6.85;1.63;;;20.70;96.70;;;;;;4959268;28;20137;-65
2022/07/27 11:35:20;;;;;;;4.28;1.55;;;20.80;98.80;;;;;;4958702;28;20122;-65
2022/07/27 11:38:07;;;;;;;3.60;1.42;;;20.80;98.30;;;;;;4954822;28;20035;-66
2022/07/27 11:40:47;;;;;;;4.13;1.45;;;20.90;96.30;;;;;;4955621;28;20122;-65
2022/07/27 11:43:29;;;;;;;4.35;1.65;;;20.90;94.10;;;;;;4952802;28;20527;-66
2022/07/27 11:45:55;;;;;;;4.93;1.80;;;21.10;97.10;;;;;;4955220;28;20043;-65
2022/07/27 11:48:20;;;;;;;3.15;1.40;;;21.60;98.70;;;;;;4954568;28;20045;-65
2022/07/27 11:50:58;;;;;;;6.80;1.60;;;21.90;98.00;;;;;;4956725;28;20027;-65
2022/07/27 11:53:25;;;;;;;4.18;2.03;;;21.40;95.90;;;;;;4963917;28;20035;-65
2022/07/27 11:55:50;;;;;;;5.38;1.60;;;21.20;97.90;;;;;;4961291;28;20039;-65
2022/07/27 11:58:17;;;;;;;3.40;1.17;;;21.20;98.10;;;;;;4955439;29;20039;-66
2022/07/27 12:00:43;;;;;;;4.15;1.42;;;21.10;97.20;;;;;;4952622;28;20087;-65
2022/07/27 12:03:20;;;;;;;4.93;1.67;;;21.20;97.20;;;;;;4965166;28;20117;-65
2022/07/27 12:05:54;;;;;;;6.13;1.27;;;21.40;96.40;;;;;;4951191;28;20568;-66
2022/07/27 12:08:20;;;;;;;4.95;1.48;;;21.50;95.50;;;;;;4953352;28;20356;-66
2022/07/27 12:11:06;;;;;;;4.72;1.30;;;21.90;96.80;;;;;;4953572;29;20079;-66
2022/07/27 12:13:35;;;;;;;2.70;1.35;;;22.00;93.10;;;;;;4951023;28;20047;-65
2022/07/27 12:16:01;;;;;;;6.10;1.30;;;22.20;95.40;;;;;;4954495;28;20035;-66
2022/07/27 12:18:42;;;;;;;4.30;1.50;;;22.50;94.00;;;;;;4954962;28;20395;-65
2022/07/27 12:21:18;;;;;;;8.48;1.50;;;22.60;90.70;;;;;;4954111;28;20035;-65
2022/07/27 12:23:51;;;;;;;2.88;1.30;;;22.20;87.60;;;;;;4961148;28;20066;-65
2022/07/27 12:26:21;;;;;;;3.28;1.30;;;22.00;91.50;;;;;;4956001;28;20090;-65
2022/07/27 12:29:07;;;;;;;8.80;1.40;;;21.60;92.90;;;;;;4954024;28;20035;-65
2022/07/27 12:31:36;;;;;;;5.78;1.50;;;21.50;90.60;;;;;;4954421;29;20098;-65
2022/07/27 12:34:05;;;;;;;4.43;1.50;;;21.20;92.80;;;;;;4951651;28;20047;-65
2022/07/27 12:36:31;;;;;;;3.95;1.60;;;21.00;92.50;;;;;;4954172;28;20102;-65
2022/07/27 12:38:57;;;;;;;4.10;1.38;;;20.90;94.50;;;;;;4957702;28;20035;-65
2022/07/27 12:41:34;;;;;;;4.13;1.40;;;21.00;94.40;;;;;;4952997;28;20050;-65
2022/07/27 12:44:17;;;;;;;3.33;1.40;;;21.20;93.70;;;;;;4951742;28;20053;-66
2022/07/27 12:49:41;;;;;;;3.55;1.60;;;21.50;92.70;;;;;;4966527;28;20051;-65
2022/07/27 12:52:08;;;;;;;4.50;1.50;;;21.80;91.60;;;;;;4968307;28;20047;-65
2022/07/27 12:54:34;;;;;;;3.65;1.40;;;22.00;92.30;;;;;;4960824;28;20464;-65
2022/07/27 12:57:00;;;;;;;5.97;1.48;;;21.80;92.40;;;;;;4958159;28;20071;-66
2022/07/27 12:59:26;;;;;;;5.53;1.60;;;21.30;91.90;;;;;;4954235;28;20114;-66
2022/07/27 13:01:52;;;;;;;3.42;1.50;;;21.00;92.90;;;;;;4964046;28;20062;-66
2022/07/27 13:04:18;;;;;;;4.53;1.50;;;20.70;92.80;;;;;;4964659;28;20411;-66
2022/07/27 13:06:43;;;;;;;6.25;1.63;;;20.40;92.80;;;;;;4963698;28;20031;-66
2022/07/27 13:09:09;;;;;;;3.03;1.50;;;20.20;92.30;;;;;;4960005;28;20046;-66
2022/07/27 13:11:35;;;;;;;3.92;1.77;;;20.10;92.40;;;;;;4957736;28;20035;-66
2022/07/27 13:14:00;;;;;;;6.80;1.60;;;20.10;93.10;;;;;;4953165;28;20047;-66
2022/07/27 13:16:26;;;;;;;7.53;1.25;;;20.20;92.80;;;;;;4953725;28;20118;-66
2022/07/27 13:18:52;;;;;;;2.85;1.23;;;20.30;92.30;;;;;;4954015;29;20410;-66
2022/07/27 13:21:17;;;;;;;2.90;1.23;;;20.40;91.80;;;;;;4956464;28;20090;-66
2022/07/27 13:23:45;;;;;;;4.05;1.35;;;20.60;91.80;;;;;;4937712;29;20047;-65
2022/07/27 13:26:11;;;;;;;4.40;1.42;;;20.80;92.10;;;;;;4953823;28;20054;-66
2022/07/27 13:28:37;;;;;;;2.85;1.38;;;20.80;91.50;;;;;;4958135;28;20071;-66
2022/07/27 13:31:03;;;;;;;3.08;1.20;;;20.90;91.50;;;;;;4954191;23;20467;-66
2022/07/27 13:33:29;;;;;;;2.80;1.15;;;21.10;91.50;;;;;;4933794;29;20045;-66
2022/07/27 13:35:54;;;;;;;4.68;1.35;;;21.20;91.70;;;;;;4933914;29;20095;-65
2022/07/27 13:38:20;;;;;;;6.13;1.42;;;21.20;90.80;;;;;;4931576;29;20047;-66
2022/07/27 13:40:46;;;;;;;2.58;0.95;;;21.30;91.90;;;;;;4944189;29;20043;-66
2022/07/27 13:43:12;;;;;;;3.42;1.20;;;21.30;91.40;;;;;;4944274;29;20050;-66
2022/07/27 13:45:38;;;;;;;5.45;1.20;;;21.20;91.50;;;;;;4938000;29;20036;-66